sensor_id;sensor_type;location;lat;lon;timestamp;pressure;altitude;pressure_sealevel;temperature;humidity
40592;BME280;26301;42.832;23.918;2022-10-16T00:01:59;93863.03;;;4.88;100.00
40592;BME280;26301;42.832;23.918;2022-10-16T00:04:25;93860.00;;;4.84;100.00
40592;BME280;26301;42.832;23.918;2022-10-16T00:06:51;93836.38;;;4.61;100.00
40592;BME280;26301;42.832;23.918;2022-10-16T00:09:17;93853.38;;;4.68;100.00
40592;BME280;26301;42.832;23.918;2022-10-16T00:11:43;93838.78;;;4.47;100.00
40592;BME280;26301;42.832;23.918;2022-10-16T00:14:12;93839.13;;;4.44;100.00
40592;BME280;26301;42.832;23.918;2022-10-16T00:16:38;93845.16;;;4.37;100.00
40592;BME280;26301;42.832;23.918;2022-10-16T00:19:04;93879.19;;;4.52;100.00
40592;BME280;26301;42.832;23.918;2022-10-16T00:21:31;93862.88;;;4.38;100.00
40592;BME280;26301;42.832;23.918;2022-10-16T00:23:59;93873.72;;;4.55;100.00
40592;BME280;26301;42.832;23.918;2022-10-16T00:26:26;93885.00;;;4.61;100.00
40592;BME280;26301;42.832;23.918;2022-10-16T00:28:52;93863.22;;;4.50;100.00
40592;BME280;26301;42.832;23.918;2022-10-16T00:31:20;93864.00;;;4.50;100.00
40592;BME280;26301;42.832;23.918;2022-10-16T00:33:46;93886.84;;;4.67;100.00
40592;BME280;26301;42.832;23.918;2022-10-16T00:36:16;93878.69;;;4.63;100.00
40592;BME280;26301;42.832;23.918;2022-10-16T00:38:42;93856.94;;;4.52;100.00
40592;BME280;26301;42.832;23.918;2022-10-16T00:41:13;93860.66;;;4.50;100.00
40592;BME280;26301;42.832;23.918;2022-10-16T00:51:30;93882.88;;;4.64;100.00
40592;BME280;26301;42.832;23.918;2022-10-16T00:53:56;93862.22;;;4.51;100.00
40592;BME280;26301;42.832;23.918;2022-10-16T00:56:22;93859.66;;;4.51;100.00
40592;BME280;26301;42.832;23.918;2022-10-16T00:58:48;93872.47;;;4.51;100.00
40592;BME280;26301;42.832;23.918;2022-10-16T01:01:14;93898.94;;;4.58;100.00
40592;BME280;26301;42.832;23.918;2022-10-16T01:03:40;93898.81;;;4.66;100.00
40592;BME280;26301;42.832;23.918;2022-10-16T01:09:03;93900.78;;;4.64;100.00
40592;BME280;26301;42.832;23.918;2022-10-16T01:14:40;93882.19;;;4.41;100.00
40592;BME280;26301;42.832;23.918;2022-10-16T01:17:33;93889.06;;;4.55;100.00
40592;BME280;26301;42.832;23.918;2022-10-16T01:23:06;93896.97;;;4.60;100.00
40592;BME280;26301;42.832;23.918;2022-10-16T01:28:11;93899.22;;;4.48;100.00
40592;BME280;26301;42.832;23.918;2022-10-16T01:30:40;93878.78;;;4.33;100.00
40592;BME280;26301;42.832;23.918;2022-10-16T01:33:14;93905.84;;;4.43;100.00
40592;BME280;26301;42.832;23.918;2022-10-16T01:35:46;93895.06;;;4.32;100.00
40592;BME280;26301;42.832;23.918;2022-10-16T01:38:20;93910.63;;;4.31;100.00
40592;BME280;26301;42.832;23.918;2022-10-16T01:40:54;93893.78;;;4.22;100.00
40592;BME280;26301;42.832;23.918;2022-10-16T01:43:35;93882.13;;;4.04;100.00
40592;BME280;26301;42.832;23.918;2022-10-16T01:46:03;93895.28;;;4.16;100.00
40592;BME280;26301;42.832;23.918;2022-10-16T01:48:32;93875.69;;;3.94;100.00
40592;BME280;26301;42.832;23.918;2022-10-16T01:51:11;93897.19;;;3.99;100.00
40592;BME280;26301;42.832;23.918;2022-10-16T01:53:39;93904.34;;;4.04;100.00
40592;BME280;26301;42.832;23.918;2022-10-16T01:56:09;93902.22;;;3.93;100.00
40592;BME280;26301;42.832;23.918;2022-10-16T01:58:41;93907.44;;;3.99;100.00
40592;BME280;26301;42.832;23.918;2022-10-16T02:01:08;93910.63;;;4.01;100.00
40592;BME280;26301;42.832;23.918;2022-10-16T02:03:38;93886.47;;;3.89;100.00
40592;BME280;26301;42.832;23.918;2022-10-16T02:06:07;93912.38;;;4.01;100.00
40592;BME280;26301;42.832;23.918;2022-10-16T02:08:33;93909.75;;;3.94;100.00
40592;BME280;26301;42.832;23.918;2022-10-16T02:11:00;93911.03;;;3.90;100.00
40592;BME280;26301;42.832;23.918;2022-10-16T02:13:33;93916.22;;;3.97;100.00
40592;BME280;26301;42.832;23.918;2022-10-16T02:16:01;93912.72;;;3.98;100.00
40592;BME280;26301;42.832;23.918;2022-10-16T02:18:26;93891.22;;;3.77;100.00
40592;BME280;26301;42.832;23.918;2022-10-16T02:21:06;93913.88;;;3.95;100.00
40592;BME280;26301;42.832;23.918;2022-10-16T02:23:49;93903.09;;;3.85;100.00
40592;BME280;26301;42.832;23.918;2022-10-16T02:26:25;93922.16;;;3.97;100.00
40592;BME280;26301;42.832;23.918;2022-10-16T02:28:55;93917.66;;;3.99;100.00
40592;BME280;26301;42.832;23.918;2022-10-16T02:31:27;93920.84;;;4.01;100.00
40592;BME280;26301;42.832;23.918;2022-10-16T02:33:56;93925.31;;;3.99;100.00
40592;BME280;26301;42.832;23.918;2022-10-16T02:36:25;93912.91;;;3.96;100.00
40592;BME280;26301;42.832;23.918;2022-10-16T02:38:51;93916.50;;;4.02;100.00
40592;BME280;26301;42.832;23.918;2022-10-16T02:41:18;93911.41;;;4.02;100.00
40592;BME280;26301;42.832;23.918;2022-10-16T02:43:46;93910.78;;;4.00;100.00
40592;BME280;26301;42.832;23.918;2022-10-16T02:46:12;93913.59;;;4.05;100.00
40592;BME280;26301;42.832;23.918;2022-10-16T02:48:38;93889.97;;;3.88;100.00
40592;BME280;26301;42.832;23.918;2022-10-16T02:51:04;93919.63;;;3.97;100.00
40592;BME280;26301;42.832;23.918;2022-10-16T02:53:30;93895.97;;;3.80;100.00
40592;BME280;26301;42.832;23.918;2022-10-16T02:55:56;93924.72;;;3.97;100.00
40592;BME280;26301;42.832;23.918;2022-10-16T02:58:22;93923.03;;;3.89;100.00
40592;BME280;26301;42.832;23.918;2022-10-16T03:00:48;93932.03;;;4.00;100.00
40592;BME280;26301;42.832;23.918;2022-10-16T03:03:13;93918.91;;;3.88;100.00
40592;BME280;26301;42.832;23.918;2022-10-16T03:05:39;93916.69;;;3.85;100.00
40592;BME280;26301;42.832;23.918;2022-10-16T03:08:05;93924.59;;;3.90;100.00
40592;BME280;26301;42.832;23.918;2022-10-16T03:10:31;93922.50;;;3.79;100.00
40592;BME280;26301;42.832;23.918;2022-10-16T03:12:57;93917.75;;;3.76;100.00
40592;BME280;26301;42.832;23.918;2022-10-16T03:15:23;93904.69;;;3.71;100.00
40592;BME280;26301;42.832;23.918;2022-10-16T03:17:49;93931.69;;;3.88;100.00
40592;BME280;26301;42.832;23.918;2022-10-16T03:20:15;93932.63;;;3.87;100.00
40592;BME280;26301;42.832;23.918;2022-10-16T03:22:40;93902.47;;;3.68;100.00
40592;BME280;26301;42.832;23.918;2022-10-16T03:25:07;93937.47;;;3.82;100.00
40592;BME280;26301;42.832;23.918;2022-10-16T03:27:33;93890.75;;;3.59;100.00
40592;BME280;26301;42.832;23.918;2022-10-16T03:29:58;93937.66;;;3.81;100.00
40592;BME280;26301;42.832;23.918;2022-10-16T03:32:24;93938.44;;;3.81;100.00
40592;BME280;26301;42.832;23.918;2022-10-16T03:34:50;93940.38;;;3.79;100.00
40592;BME280;26301;42.832;23.918;2022-10-16T03:37:18;93918.50;;;3.62;100.00
40592;BME280;26301;42.832;23.918;2022-10-16T03:39:44;93917.22;;;3.58;100.00
40592;BME280;26301;42.832;23.918;2022-10-16T03:42:10;93919.34;;;3.54;100.00
40592;BME280;26301;42.832;23.918;2022-10-16T03:44:36;93874.47;;;3.22;100.00
40592;BME280;26301;42.832;23.918;2022-10-16T03:47:01;93943.69;;;3.65;100.00
40592;BME280;26301;42.832;23.918;2022-10-16T03:49:27;93917.38;;;3.41;100.00
40592;BME280;26301;42.832;23.918;2022-10-16T03:51:53;93943.47;;;3.52;100.00
40592;BME280;26301;42.832;23.918;2022-10-16T03:54:19;93942.19;;;3.56;100.00
40592;BME280;26301;42.832;23.918;2022-10-16T03:56:44;93923.63;;;3.39;100.00
40592;BME280;26301;42.832;23.918;2022-10-16T03:59:10;93924.41;;;3.39;100.00
40592;BME280;26301;42.832;23.918;2022-10-16T04:01:36;93939.09;;;3.60;100.00
40592;BME280;26301;42.832;23.918;2022-10-16T04:04:02;93930.69;;;3.52;100.00
40592;BME280;26301;42.832;23.918;2022-10-16T04:06:27;93941.50;;;3.62;100.00
40592;BME280;26301;42.832;23.918;2022-10-16T04:08:53;93934.31;;;3.57;100.00
40592;BME280;26301;42.832;23.918;2022-10-16T04:11:19;93942.72;;;3.66;100.00
40592;BME280;26301;42.832;23.918;2022-10-16T04:13:45;93933.19;;;3.60;100.00
40592;BME280;26301;42.832;23.918;2022-10-16T04:16:10;93936.38;;;3.62;100.00
40592;BME280;26301;42.832;23.918;2022-10-16T04:18:36;93942.22;;;3.71;100.00
40592;BME280;26301;42.832;23.918;2022-10-16T04:21:06;93933.47;;;3.65;100.00
40592;BME280;26301;42.832;23.918;2022-10-16T04:23:32;93927.28;;;3.59;100.00
40592;BME280;26301;42.832;23.918;2022-10-16T04:25:58;93944.25;;;3.75;100.00
40592;BME280;26301;42.832;23.918;2022-10-16T04:28:23;93951.13;;;3.75;100.00
40592;BME280;26301;42.832;23.918;2022-10-16T04:30:49;93934.50;;;3.56;100.00
40592;BME280;26301;42.832;23.918;2022-10-16T04:33:15;93949.94;;;3.62;100.00
40592;BME280;26301;42.832;23.918;2022-10-16T04:35:41;93936.16;;;3.49;100.00
40592;BME280;26301;42.832;23.918;2022-10-16T04:38:06;93958.25;;;3.64;100.00
40592;BME280;26301;42.832;23.918;2022-10-16T04:40:33;93956.03;;;3.61;100.00
40592;BME280;26301;42.832;23.918;2022-10-16T04:43:01;93925.19;;;3.40;100.00
40592;BME280;26301;42.832;23.918;2022-10-16T04:45:27;93965.56;;;3.67;100.00
40592;BME280;26301;42.832;23.918;2022-10-16T04:47:52;93943.81;;;3.49;100.00
40592;BME280;26301;42.832;23.918;2022-10-16T04:50:18;93960.50;;;3.59;100.00
40592;BME280;26301;42.832;23.918;2022-10-16T04:52:43;93940.81;;;3.45;100.00
40592;BME280;26301;42.832;23.918;2022-10-16T04:55:09;93972.09;;;3.70;100.00
40592;BME280;26301;42.832;23.918;2022-10-16T04:57:35;93948.13;;;3.48;100.00
40592;BME280;26301;42.832;23.918;2022-10-16T05:00:02;93945.78;;;3.47;100.00
40592;BME280;26301;42.832;23.918;2022-10-16T05:02:28;93974.81;;;3.69;100.00
40592;BME280;26301;42.832;23.918;2022-10-16T05:04:54;93963.00;;;3.67;100.00
40592;BME280;26301;42.832;23.918;2022-10-16T05:07:20;93978.53;;;3.81;100.00
40592;BME280;26301;42.832;23.918;2022-10-16T05:09:46;93963.78;;;3.68;100.00
40592;BME280;26301;42.832;23.918;2022-10-16T05:12:12;93958.09;;;3.81;100.00
40592;BME280;26301;42.832;23.918;2022-10-16T05:14:38;93983.75;;;4.02;100.00
40592;BME280;26301;42.832;23.918;2022-10-16T05:17:03;93965.44;;;3.99;100.00
40592;BME280;26301;42.832;23.918;2022-10-16T05:19:29;93959.00;;;4.03;100.00
40592;BME280;26301;42.832;23.918;2022-10-16T05:21:55;93966.31;;;4.21;100.00
40592;BME280;26301;42.832;23.918;2022-10-16T05:24:21;93985.75;;;4.45;100.00
40592;BME280;26301;42.832;23.918;2022-10-16T05:26:47;93985.38;;;4.48;100.00
40592;BME280;26301;42.832;23.918;2022-10-16T05:29:13;93986.44;;;4.53;100.00
40592;BME280;26301;42.832;23.918;2022-10-16T05:31:38;93991.75;;;4.67;100.00
40592;BME280;26301;42.832;23.918;2022-10-16T05:34:04;93996.41;;;4.78;100.00
40592;BME280;26301;42.832;23.918;2022-10-16T05:36:30;93997.53;;;4.90;100.00
40592;BME280;26301;42.832;23.918;2022-10-16T05:38:56;93964.81;;;4.86;100.00
40592;BME280;26301;42.832;23.918;2022-10-16T05:41:22;93926.59;;;4.69;100.00
40592;BME280;26301;42.832;23.918;2022-10-16T05:43:51;93984.06;;;5.18;100.00
40592;BME280;26301;42.832;23.918;2022-10-16T05:46:16;93971.69;;;5.21;100.00
40592;BME280;26301;42.832;23.918;2022-10-16T05:48:43;93979.50;;;5.35;100.00
40592;BME280;26301;42.832;23.918;2022-10-16T05:51:11;93991.72;;;5.54;100.00
40592;BME280;26301;42.832;23.918;2022-10-16T05:53:39;93996.41;;;5.72;100.00
40592;BME280;26301;42.832;23.918;2022-10-16T05:56:06;94009.75;;;5.89;100.00
40592;BME280;26301;42.832;23.918;2022-10-16T05:58:34;93988.88;;;5.92;100.00
40592;BME280;26301;42.832;23.918;2022-10-16T06:01:03;93997.50;;;6.06;100.00
40592;BME280;26301;42.832;23.918;2022-10-16T06:03:29;94012.06;;;6.27;100.00
40592;BME280;26301;42.832;23.918;2022-10-16T06:05:55;93988.63;;;6.36;100.00
40592;BME280;26301;42.832;23.918;2022-10-16T06:08:22;94013.88;;;6.68;100.00
40592;BME280;26301;42.832;23.918;2022-10-16T06:10:49;94009.63;;;6.88;100.00
40592;BME280;26301;42.832;23.918;2022-10-16T06:13:25;94003.34;;;6.97;100.00
40592;BME280;26301;42.832;23.918;2022-10-16T06:15:51;94014.13;;;7.21;100.00
40592;BME280;26301;42.832;23.918;2022-10-16T06:18:17;94012.38;;;7.35;100.00
40592;BME280;26301;42.832;23.918;2022-10-16T06:20:42;94020.53;;;7.51;100.00
40592;BME280;26301;42.832;23.918;2022-10-16T06:23:08;94016.59;;;7.69;100.00
40592;BME280;26301;42.832;23.918;2022-10-16T06:25:35;93980.59;;;7.69;100.00
40592;BME280;26301;42.832;23.918;2022-10-16T06:28:00;94012.09;;;8.04;100.00
40592;BME280;26301;42.832;23.918;2022-10-16T06:30:26;94025.34;;;8.34;100.00
40592;BME280;26301;42.832;23.918;2022-10-16T06:32:52;94021.22;;;8.46;100.00
40592;BME280;26301;42.832;23.918;2022-10-16T06:35:18;94032.03;;;8.75;100.00
40592;BME280;26301;42.832;23.918;2022-10-16T06:37:44;94032.22;;;8.93;100.00
40592;BME280;26301;42.832;23.918;2022-10-16T06:40:10;94026.63;;;9.03;100.00
40592;BME280;26301;42.832;23.918;2022-10-16T06:42:36;94040.41;;;9.29;100.00
40592;BME280;26301;42.832;23.918;2022-10-16T06:45:02;94029.28;;;9.35;99.74
40592;BME280;26301;42.832;23.918;2022-10-16T06:47:28;94038.69;;;9.61;100.00
40592;BME280;26301;42.832;23.918;2022-10-16T06:49:54;94048.25;;;9.85;96.71
40592;BME280;26301;42.832;23.918;2022-10-16T06:52:19;94049.75;;;10.00;92.38
40592;BME280;26301;42.832;23.918;2022-10-16T06:54:45;94050.03;;;10.17;95.87
40592;BME280;26301;42.832;23.918;2022-10-16T06:57:11;94046.00;;;10.27;95.19
40592;BME280;26301;42.832;23.918;2022-10-16T06:59:37;93994.91;;;10.04;93.07
40592;BME280;26301;42.832;23.918;2022-10-16T07:02:03;94049.53;;;10.58;95.54
40592;BME280;26301;42.832;23.918;2022-10-16T07:04:28;94058.13;;;10.77;92.22
40592;BME280;26301;42.832;23.918;2022-10-16T07:06:53;94068.47;;;10.95;85.14
40592;BME280;26301;42.832;23.918;2022-10-16T07:09:19;94045.84;;;10.91;83.70
40592;BME280;26301;42.832;23.918;2022-10-16T07:11:45;94063.44;;;11.19;85.09
40592;BME280;26301;42.832;23.918;2022-10-16T07:14:16;94029.78;;;11.07;78.14
40592;BME280;26301;42.832;23.918;2022-10-16T07:16:42;94070.13;;;11.45;81.07
40592;BME280;26301;42.832;23.918;2022-10-16T07:19:08;94070.97;;;11.57;80.30
40592;BME280;26301;42.832;23.918;2022-10-16T07:21:34;94067.41;;;11.70;75.41
40592;BME280;26301;42.832;23.918;2022-10-16T07:24:01;94061.69;;;11.68;74.18
40592;BME280;26301;42.832;23.918;2022-10-16T07:26:29;94072.94;;;11.92;72.48
40592;BME280;26301;42.832;23.918;2022-10-16T07:28:59;94080.75;;;12.04;72.75
40592;BME280;26301;42.832;23.918;2022-10-16T07:31:26;94060.38;;;12.07;67.28
40592;BME280;26301;42.832;23.918;2022-10-16T07:33:53;94077.22;;;12.28;65.11
40592;BME280;26301;42.832;23.918;2022-10-16T07:36:20;94076.88;;;12.37;67.78
40592;BME280;26301;42.832;23.918;2022-10-16T07:38:46;94083.44;;;12.51;67.47
40592;BME280;26301;42.832;23.918;2022-10-16T07:41:18;94080.75;;;12.57;65.52
40592;BME280;26301;42.832;23.918;2022-10-16T07:43:52;94053.56;;;12.48;61.38
40592;BME280;26301;42.832;23.918;2022-10-16T07:46:19;94062.84;;;12.68;60.66
40592;BME280;26301;42.832;23.918;2022-10-16T07:48:46;94077.34;;;12.69;62.99
40592;BME280;26301;42.832;23.918;2022-10-16T07:51:15;94081.44;;;12.76;58.86
40592;BME280;26301;42.832;23.918;2022-10-16T07:53:42;94083.78;;;12.78;62.31
40592;BME280;26301;42.832;23.918;2022-10-16T07:56:08;94061.94;;;12.62;61.88
40592;BME280;26301;42.832;23.918;2022-10-16T07:58:34;94080.28;;;12.84;63.62
40592;BME280;26301;42.832;23.918;2022-10-16T08:01:10;94077.59;;;12.91;66.34
40592;BME280;26301;42.832;23.918;2022-10-16T08:03:36;94083.00;;;13.01;60.60
40592;BME280;26301;42.832;23.918;2022-10-16T08:06:05;94089.88;;;13.07;60.22
40592;BME280;26301;42.832;23.918;2022-10-16T08:08:31;94087.94;;;13.02;61.07
40592;BME280;26301;42.832;23.918;2022-10-16T08:10:57;94086.63;;;13.12;58.04
40592;BME280;26301;42.832;23.918;2022-10-16T08:13:23;94093.59;;;13.11;60.86
40592;BME280;26301;42.832;23.918;2022-10-16T08:15:48;94070.81;;;13.01;59.78
40592;BME280;26301;42.832;23.918;2022-10-16T08:18:15;94084.09;;;13.17;60.83
40592;BME280;26301;42.832;23.918;2022-10-16T08:20:42;94075.09;;;13.08;57.46
40592;BME280;26301;42.832;23.918;2022-10-16T08:23:10;94086.81;;;13.22;56.60
40592;BME280;26301;42.832;23.918;2022-10-16T08:25:36;94091.69;;;13.30;58.21
40592;BME280;26301;42.832;23.918;2022-10-16T08:28:07;94064.28;;;13.11;63.49
40592;BME280;26301;42.832;23.918;2022-10-16T08:30:33;94065.28;;;13.21;60.17
40592;BME280;26301;42.832;23.918;2022-10-16T08:32:59;94081.31;;;13.18;58.83
40592;BME280;26301;42.832;23.918;2022-10-16T08:35:25;94084.09;;;13.40;59.28
40592;BME280;26301;42.832;23.918;2022-10-16T08:37:51;94066.41;;;13.37;59.37
40592;BME280;26301;42.832;23.918;2022-10-16T08:40:20;94094.34;;;13.47;57.63
40592;BME280;26301;42.832;23.918;2022-10-16T08:43:11;94094.13;;;13.60;57.01
40592;BME280;26301;42.832;23.918;2022-10-16T08:45:55;94071.56;;;13.49;58.02
40592;BME280;26301;42.832;23.918;2022-10-16T08:48:52;94095.69;;;13.61;57.09
40592;BME280;26301;42.832;23.918;2022-10-16T08:51:24;94073.81;;;13.57;59.37
40592;BME280;26301;42.832;23.918;2022-10-16T08:53:58;94095.97;;;13.77;54.74
40592;BME280;26301;42.832;23.918;2022-10-16T08:56:25;94074.88;;;13.73;57.78
40592;BME280;26301;42.832;23.918;2022-10-16T08:58:52;94086.56;;;13.87;54.02
40592;BME280;26301;42.832;23.918;2022-10-16T09:01:21;94103.59;;;13.95;57.20
40592;BME280;26301;42.832;23.918;2022-10-16T09:06:56;94101.66;;;14.02;54.13
40592;BME280;26301;42.832;23.918;2022-10-16T09:12:28;94101.97;;;14.06;54.90
40592;BME280;26301;42.832;23.918;2022-10-16T09:18:01;94089.75;;;14.06;52.69
40592;BME280;26301;42.832;23.918;2022-10-16T09:20:35;94106.88;;;14.19;55.83
40592;BME280;26301;42.832;23.918;2022-10-16T09:25:30;94106.59;;;14.32;55.66
40592;BME280;26301;42.832;23.918;2022-10-16T09:27:57;94088.22;;;14.22;56.57
40592;BME280;26301;42.832;23.918;2022-10-16T09:30:27;94079.41;;;14.23;56.24
40592;BME280;26301;42.832;23.918;2022-10-16T09:32:54;94097.34;;;14.25;55.04
40592;BME280;26301;42.832;23.918;2022-10-16T09:35:31;94094.06;;;14.29;55.58
40592;BME280;26301;42.832;23.918;2022-10-16T09:37:58;94097.75;;;14.33;54.40
40592;BME280;26301;42.832;23.918;2022-10-16T09:40:35;94081.84;;;14.30;56.97
40592;BME280;26301;42.832;23.918;2022-10-16T09:48:21;94071.22;;;14.48;57.03
40592;BME280;26301;42.832;23.918;2022-10-16T09:50:59;94096.25;;;14.66;53.15
40592;BME280;26301;42.832;23.918;2022-10-16T09:53:37;94069.88;;;14.46;55.73
40592;BME280;26301;42.832;23.918;2022-10-16T09:56:03;94073.53;;;14.45;55.54
40592;BME280;26301;42.832;23.918;2022-10-16T09:58:32;94091.19;;;14.59;55.83
40592;BME280;26301;42.832;23.918;2022-10-16T10:00:59;94082.56;;;14.42;53.62
40592;BME280;26301;42.832;23.918;2022-10-16T10:03:37;94088.25;;;14.39;53.63
40592;BME280;26301;42.832;23.918;2022-10-16T10:06:25;94092.66;;;14.38;53.75
40592;BME280;26301;42.832;23.918;2022-10-16T10:08:56;94087.78;;;14.42;52.58
40592;BME280;26301;42.832;23.918;2022-10-16T10:11:42;94080.13;;;14.35;52.96
40592;BME280;26301;42.832;23.918;2022-10-16T10:16:43;94069.34;;;14.27;54.97
40592;BME280;26301;42.832;23.918;2022-10-16T10:19:20;94062.47;;;14.21;52.25
40592;BME280;26301;42.832;23.918;2022-10-16T10:21:47;94077.19;;;14.32;53.63
40592;BME280;26301;42.832;23.918;2022-10-16T10:24:14;94077.34;;;14.25;52.18
40592;BME280;26301;42.832;23.918;2022-10-16T10:26:57;94073.34;;;14.34;52.61
40592;BME280;26301;42.832;23.918;2022-10-16T10:29:50;94084.91;;;14.44;51.84
40592;BME280;26301;42.832;23.918;2022-10-16T10:38:06;94056.28;;;14.38;53.33
40592;BME280;26301;42.832;23.918;2022-10-16T10:46:02;94059.75;;;14.61;54.69
40592;BME280;26301;42.832;23.918;2022-10-16T10:49:02;94064.09;;;14.72;53.08
40592;BME280;26301;42.832;23.918;2022-10-16T10:54:35;94065.19;;;14.76;50.56
40592;BME280;26301;42.832;23.918;2022-10-16T10:57:14;94068.94;;;14.85;52.78
40592;BME280;26301;42.832;23.918;2022-10-16T11:02:32;94068.16;;;14.85;51.10
40592;BME280;26301;42.832;23.918;2022-10-16T11:05:23;94059.97;;;14.93;54.04
40592;BME280;26301;42.832;23.918;2022-10-16T11:08:19;94062.56;;;14.93;56.24
40592;BME280;26301;42.832;23.918;2022-10-16T11:10:54;94045.00;;;14.83;51.32
40592;BME280;26301;42.832;23.918;2022-10-16T11:13:48;94036.97;;;14.85;49.46
40592;BME280;26301;42.832;23.918;2022-10-16T11:16:23;94059.88;;;15.05;48.27
40592;BME280;26301;42.832;23.918;2022-10-16T11:22:09;94067.69;;;15.05;47.89
40592;BME280;26301;42.832;23.918;2022-10-16T11:27:04;94061.78;;;14.93;49.58
40592;BME280;26301;42.832;23.918;2022-10-16T11:29:35;94058.53;;;14.85;49.43
40592;BME280;26301;42.832;23.918;2022-10-16T11:32:21;94059.81;;;14.83;50.94
40592;BME280;26301;42.832;23.918;2022-10-16T11:34:49;94069.69;;;14.81;49.64
40592;BME280;26301;42.832;23.918;2022-10-16T11:37:23;94049.06;;;14.57;49.23
40592;BME280;26301;42.832;23.918;2022-10-16T11:39:52;94042.75;;;14.53;50.28
40592;BME280;26301;42.832;23.918;2022-10-16T11:42:27;94047.16;;;14.53;49.80
40592;BME280;26301;42.832;23.918;2022-10-16T11:48:45;94061.56;;;14.77;49.09
40592;BME280;26301;42.832;23.918;2022-10-16T11:53:51;94053.53;;;14.79;48.78
40592;BME280;26301;42.832;23.918;2022-10-16T11:56:20;94060.53;;;14.78;46.96
40592;BME280;26301;42.832;23.918;2022-10-16T11:59:02;94063.53;;;14.87;46.86
40592;BME280;26301;42.832;23.918;2022-10-16T12:04:12;94062.19;;;14.84;49.59
40592;BME280;26301;42.832;23.918;2022-10-16T12:07:26;94066.91;;;14.88;47.39
40592;BME280;26301;42.832;23.918;2022-10-16T12:09:34;94068.56;;;14.77;47.06
40592;BME280;26301;42.832;23.918;2022-10-16T12:12:02;94071.56;;;14.85;47.69
40592;BME280;26301;42.832;23.918;2022-10-16T12:16:58;94073.06;;;14.98;47.31
40592;BME280;26301;42.832;23.918;2022-10-16T12:19:27;94064.97;;;14.61;45.89
40592;BME280;26301;42.832;23.918;2022-10-16T12:21:59;94058.81;;;14.67;46.26
40592;BME280;26301;42.832;23.918;2022-10-16T12:26:57;94077.00;;;14.84;47.83
40592;BME280;26301;42.832;23.918;2022-10-16T12:29:40;94082.34;;;14.94;45.72
40592;BME280;26301;42.832;23.918;2022-10-16T12:34:53;94060.94;;;14.87;46.35
40592;BME280;26301;42.832;23.918;2022-10-16T12:39:52;94082.25;;;15.06;46.70
40592;BME280;26301;42.832;23.918;2022-10-16T12:44:55;94068.84;;;14.97;46.57
40592;BME280;26301;42.832;23.918;2022-10-16T12:47:22;94083.06;;;14.90;46.77
40592;BME280;26301;42.832;23.918;2022-10-16T12:49:50;94071.84;;;14.89;44.72
40592;BME280;26301;42.832;23.918;2022-10-16T12:54:59;94088.41;;;15.00;45.65
40592;BME280;26301;42.832;23.918;2022-10-16T13:01:01;94072.19;;;14.93;46.24
40592;BME280;26301;42.832;23.918;2022-10-16T13:04:10;94078.66;;;14.90;45.80
40592;BME280;26301;42.832;23.918;2022-10-16T13:09:49;94093.53;;;14.95;45.54
40592;BME280;26301;42.832;23.918;2022-10-16T13:15:42;94094.69;;;15.04;44.70
40592;BME280;26301;42.832;23.918;2022-10-16T13:26:46;94088.00;;;15.08;50.58
40592;BME280;26301;42.832;23.918;2022-10-16T13:29:16;94091.94;;;15.11;46.27
40592;BME280;26301;42.832;23.918;2022-10-16T13:31:43;94086.97;;;15.09;43.96
40592;BME280;26301;42.832;23.918;2022-10-16T13:34:15;94091.34;;;14.86;44.50
40592;BME280;26301;42.832;23.918;2022-10-16T13:36:45;94084.88;;;14.89;48.05
40592;BME280;26301;42.832;23.918;2022-10-16T13:39:15;94093.00;;;14.93;47.31
40592;BME280;26301;42.832;23.918;2022-10-16T13:41:57;94086.47;;;14.90;45.58
40592;BME280;26301;42.832;23.918;2022-10-16T13:44:23;94093.53;;;14.95;46.00
40592;BME280;26301;42.832;23.918;2022-10-16T13:47:03;94097.47;;;14.97;46.21
40592;BME280;26301;42.832;23.918;2022-10-16T13:49:29;94097.06;;;15.05;45.23
40592;BME280;26301;42.832;23.918;2022-10-16T13:51:58;94089.28;;;14.89;46.17
40592;BME280;26301;42.832;23.918;2022-10-16T13:54:26;94091.13;;;14.71;49.25
40592;BME280;26301;42.832;23.918;2022-10-16T13:56:54;94106.41;;;14.84;48.54
40592;BME280;26301;42.832;23.918;2022-10-16T13:59:46;94102.63;;;14.92;46.84
40592;BME280;26301;42.832;23.918;2022-10-16T14:02:39;94108.59;;;14.93;48.16
40592;BME280;26301;42.832;23.918;2022-10-16T14:05:08;94106.63;;;14.83;46.46
40592;BME280;26301;42.832;23.918;2022-10-16T14:07:36;94107.75;;;14.87;48.90
40592;BME280;26301;42.832;23.918;2022-10-16T14:10:16;94094.09;;;14.80;50.59
40592;BME280;26301;42.832;23.918;2022-10-16T14:12:44;94110.25;;;14.65;46.90
40592;BME280;26301;42.832;23.918;2022-10-16T14:15:17;94111.75;;;14.78;45.90
40592;BME280;26301;42.832;23.918;2022-10-16T14:17:45;94109.81;;;14.68;45.28
40592;BME280;26301;42.832;23.918;2022-10-16T14:20:15;94108.47;;;14.66;45.50
40592;BME280;26301;42.832;23.918;2022-10-16T14:22:43;94121.47;;;14.66;47.38
40592;BME280;26301;42.832;23.918;2022-10-16T14:27:59;94123.59;;;14.69;48.72
40592;BME280;26301;42.832;23.918;2022-10-16T14:30:27;94107.97;;;14.52;47.53
40592;BME280;26301;42.832;23.918;2022-10-16T14:33:05;94111.25;;;14.47;49.39
40592;BME280;26301;42.832;23.918;2022-10-16T14:35:33;94122.19;;;14.49;50.97
40592;BME280;26301;42.832;23.918;2022-10-16T14:38:01;94125.09;;;14.36;52.15
40592;BME280;26301;42.832;23.918;2022-10-16T14:40:32;94132.56;;;14.32;53.76
40592;BME280;26301;42.832;23.918;2022-10-16T14:43:00;94126.56;;;14.15;54.44
40592;BME280;26301;42.832;23.918;2022-10-16T14:45:29;94114.53;;;13.97;54.53
40592;BME280;26301;42.832;23.918;2022-10-16T14:47:58;94139.81;;;14.02;54.70
40592;BME280;26301;42.832;23.918;2022-10-16T14:50:25;94139.88;;;13.90;55.18